Time;durP1;ratioP1;P1;durP2;ratioP2;P2;SDS_P1;SDS_P2;PMS_P1;PMS_P2;Temp;Humidity;BMP_temperature;BMP_pressure;BME280_temperature;BME280_humidity;BME280_pressure;Samples;Min_cycle;Max_cycle;Signal;HPM_P1;HPM_P2
2024/03/15 00:01:40;;;;;;;6.13;4.10;;;;;;;9.15;51.30;100600.94;5030168;28;20051;-74
2024/03/15 00:04:05;;;;;;;6.93;4.72;;;;;;;9.07;51.55;100602.13;5019381;28;20040;-74
2024/03/15 00:06:31;;;;;;;7.45;4.30;;;;;;;9.22;50.97;100606.75;5009118;28;20033;-74
2024/03/15 00:08:57;;;;;;;8.40;4.63;;;;;;;9.32;50.79;100600.28;5011401;28;20471;-74
2024/03/15 00:11:23;;;;;;;5.57;4.03;;;;;;;9.91;49.48;100595.38;4996497;28;20481;-74
2024/03/15 00:13:49;;;;;;;8.07;4.90;;;;;;;9.46;50.85;100594.53;5009974;28;20124;-74
2024/03/15 00:16:15;;;;;;;7.45;4.47;;;;;;;9.47;50.29;100605.81;5008107;28;20033;-74
2024/03/15 00:18:40;;;;;;;7.60;4.25;;;;;;;9.60;50.47;100593.97;5005560;28;20041;-73
2024/03/15 00:21:06;;;;;;;7.85;4.80;;;;;;;9.65;50.32;100599.84;5007843;28;20029;-74
2024/03/15 00:23:32;;;;;;;6.45;4.38;;;;;;;9.62;50.38;100594.75;5007106;28;20549;-74
2024/03/15 00:26:01;;;;;;;6.55;4.43;;;;;;;9.75;50.04;100598.56;5007949;28;20068;-69
2024/03/15 00:28:27;;;;;;;6.20;3.95;;;;;;;9.78;49.95;100595.81;5017201;28;20163;-68
2024/03/15 00:30:52;;;;;;;4.90;3.88;;;;;;;9.96;49.62;100593.41;5001195;28;20033;-68
2024/03/15 00:33:18;;;;;;;6.80;3.67;;;;;;;9.87;49.77;100585.97;5010366;28;20029;-68
2024/03/15 00:35:43;;;;;;;6.13;4.35;;;;;;;9.84;50.16;100581.72;5006132;28;20403;-68
2024/03/15 00:38:09;;;;;;;5.82;3.95;;;;;;;9.49;50.39;100583.13;5005056;28;20083;-68
2024/03/15 00:40:35;;;;;;;7.72;3.88;;;;;;;9.86;50.08;100581.66;5011099;28;20569;-68
2024/03/15 00:43:02;;;;;;;4.82;3.65;;;;;;;9.97;49.40;100575.06;5006847;28;20041;-68
2024/03/15 00:45:29;;;;;;;5.93;4.15;;;;;;;9.65;50.44;100578.13;5001538;28;20033;-69
2024/03/15 00:47:55;;;;;;;5.57;4.05;;;;;;;9.99;49.45;100570.63;5002953;28;20044;-68
2024/03/15 00:50:20;;;;;;;9.18;4.97;;;;;;;9.73;50.24;100566.47;5011948;28;20025;-69
2024/03/15 00:52:46;;;;;;;5.22;3.45;;;;;;;9.71;50.28;100557.84;5000661;28;20957;-69
2024/03/15 00:55:12;;;;;;;10.35;3.72;;;;;;;10.02;49.38;100564.44;5009187;28;20072;-70
2024/03/15 00:57:38;;;;;;;10.02;4.15;;;;;;;9.56;50.52;100561.06;5002521;28;20473;-69
2024/03/15 01:00:04;;;;;;;7.75;4.95;;;;;;;9.73;50.54;100556.03;5009107;28;20029;-69
2024/03/15 01:02:30;;;;;;;6.00;4.63;;;;;;;9.49;50.92;100557.03;5005702;28;20140;-74
2024/03/15 01:04:56;;;;;;;9.73;5.75;;;;;;;9.62;50.77;100553.00;5006410;28;20120;-75
2024/03/15 01:07:21;;;;;;;7.82;4.72;;;;;;;9.32;51.51;100553.34;5009918;28;20121;-75
2024/03/15 01:09:46;;;;;;;6.88;4.70;;;;;;;9.72;50.39;100554.34;5005868;28;20032;-71
2024/03/15 01:12:14;;;;;;;5.07;3.70;;;;;;;9.85;49.99;100548.63;5010787;28;20053;-71
2024/03/15 01:14:40;;;;;;;7.05;4.82;;;;;;;9.67;50.70;100539.78;5007489;28;20069;-71
2024/03/15 01:17:07;;;;;;;5.47;4.15;;;;;;;9.45;51.07;100537.19;5011286;28;20403;-71
2024/03/15 01:19:33;;;;;;;7.30;4.88;;;;;;;9.58;51.23;100546.22;5018939;28;20418;-71
2024/03/15 01:22:00;;;;;;;6.50;3.97;;;;;;;9.65;50.81;100537.22;5016692;28;20041;-71
2024/03/15 01:24:26;;;;;;;6.05;3.80;;;;;;;9.74;50.50;100531.59;5009210;28;24751;-70
2024/03/15 01:26:52;;;;;;;5.63;4.35;;;;;;;9.76;50.22;100529.78;5010183;28;20035;-70
2024/03/15 01:29:17;;;;;;;7.93;4.05;;;;;;;9.80;50.18;100531.38;5011303;28;20060;-70
2024/03/15 01:31:43;;;;;;;5.15;4.00;;;;;;;9.55;51.02;100525.47;5012103;28;20596;-71
2024/03/15 01:34:09;;;;;;;6.93;3.78;;;;;;;9.70;50.62;100524.84;5013143;28;20102;-70
2024/03/15 01:36:34;;;;;;;7.15;4.30;;;;;;;9.61;50.83;100527.84;5004441;28;20045;-71
2024/03/15 01:39:00;;;;;;;4.78;3.88;;;;;;;9.33;51.50;100521.13;5013273;28;20120;-71
2024/03/15 01:41:25;;;;;;;6.05;4.25;;;;;;;9.60;51.05;100523.53;5012707;28;20033;-70
2024/03/15 01:43:51;;;;;;;6.80;4.25;;;;;;;9.44;51.09;100519.84;5010435;28;20075;-71
2024/03/15 01:46:17;;;;;;;7.90;4.35;;;;;;;9.35;51.55;100511.47;5017953;28;20045;-71
2024/03/15 01:48:44;;;;;;;7.90;4.40;;;;;;;9.33;51.39;100518.50;5014588;28;20041;-71
2024/03/15 01:51:11;;;;;;;7.57;5.00;;;;;;;9.37;51.47;100512.28;5012606;28;20526;-68
2024/03/15 01:53:37;;;;;;;7.93;4.10;;;;;;;9.44;51.04;100510.25;5012020;28;20538;-70
2024/03/15 01:56:02;;;;;;;6.47;4.35;;;;;;;9.08;52.22;100510.00;5008739;28;20132;-69
2024/03/15 01:58:28;;;;;;;7.25;4.20;;;;;;;9.24;51.42;100505.84;5010402;28;20048;-69
2024/03/15 02:00:56;;;;;;;9.75;4.50;;;;;;;9.12;52.15;100501.13;5015363;28;20033;-72
2024/03/15 02:03:23;;;;;;;9.13;4.53;;;;;;;9.13;51.64;100489.78;5023011;28;20037;-73
2024/03/15 02:05:49;;;;;;;5.47;3.97;;;;;;;9.03;52.19;100491.06;5016284;28;20082;-73
2024/03/15 02:08:21;;;;;;;6.43;4.75;;;;;;;8.75;52.83;100497.34;5012862;28;20068;-73
2024/03/15 02:10:46;;;;;;;10.40;4.55;;;;;;;8.53;53.80;100508.53;5015972;28;20045;-66
2024/03/15 02:13:15;;;;;;;5.28;3.90;;;;;;;8.61;53.38;100499.63;5013507;28;20637;-67
2024/03/15 02:15:42;;;;;;;8.02;4.53;;;;;;;8.61;53.41;100494.41;5013458;28;20061;-74
2024/03/15 02:18:08;;;;;;;6.80;4.65;;;;;;;8.68;53.20;100501.06;5003948;28;20515;-74
2024/03/15 02:20:34;;;;;;;8.90;4.70;;;;;;;8.49;53.88;100496.53;5015621;28;20032;-74
2024/03/15 02:22:59;;;;;;;5.90;3.72;;;;;;;8.72;53.30;100503.53;4993030;28;20457;-74
2024/03/15 02:25:25;;;;;;;7.10;3.95;;;;;;;8.90;52.69;100496.75;5015293;28;20082;-73
2024/03/15 02:27:50;;;;;;;6.82;3.67;;;;;;;8.81;52.94;100499.72;5023123;28;20489;-73
2024/03/15 02:30:20;;;;;;;5.13;3.63;;;;;;;8.97;52.53;100490.41;5012290;28;20091;-73
2024/03/15 02:32:46;;;;;;;10.63;4.78;;;;;;;8.75;52.80;100487.78;5013254;28;20741;-72
2024/03/15 02:35:12;;;;;;;7.07;3.75;;;;;;;8.91;52.79;100497.59;5005801;28;20034;-73
2024/03/15 02:37:37;;;;;;;8.48;4.63;;;;;;;8.91;52.67;100502.81;5010299;28;20044;-72
2024/03/15 02:40:06;;;;;;;7.70;4.45;;;;;;;8.91;52.62;100503.66;4997501;28;20036;-73
2024/03/15 02:42:32;;;;;;;4.88;4.30;;;;;;;8.46;53.90;100501.88;5020468;28;20045;-72
2024/03/15 02:44:58;;;;;;;5.45;4.07;;;;;;;8.61;53.33;100500.47;5013658;28;20051;-73
2024/03/15 02:47:25;;;;;;;9.35;4.13;;;;;;;8.42;54.05;100489.84;5032694;28;20052;-72
2024/03/15 02:49:51;;;;;;;4.55;3.55;;;;;;;8.76;52.92;100493.81;5027242;28;20118;-72
2024/03/15 02:52:17;;;;;;;8.07;3.88;;;;;;;8.78;52.86;100489.41;5033539;28;20152;-73
2024/03/15 02:54:43;;;;;;;7.72;4.40;;;;;;;9.03;52.21;100488.44;5029297;28;20067;-72
2024/03/15 02:57:08;;;;;;;9.63;4.03;;;;;;;9.04;52.33;100497.97;5032630;28;20059;-72
2024/03/15 02:59:34;;;;;;;6.55;4.35;;;;;;;8.92;52.74;100484.53;5031613;28;20029;-72
2024/03/15 03:01:59;;;;;;;6.57;3.85;;;;;;;9.04;52.22;100487.56;5030060;28;20040;-71
2024/03/15 03:04:25;;;;;;;6.38;3.85;;;;;;;8.62;53.49;100485.66;5029296;28;20037;-72
2024/03/15 03:06:50;;;;;;;9.63;4.05;;;;;;;8.84;53.13;100481.34;5029156;28;20042;-72
2024/03/15 03:09:20;;;;;;;8.20;4.15;;;;;;;8.76;53.37;100478.19;5028885;28;20098;-72
2024/03/15 03:11:46;;;;;;;5.20;3.53;;;;;;;8.97;52.70;100474.75;5028962;28;20032;-70
2024/03/15 03:14:13;;;;;;;5.22;4.07;;;;;;;9.08;52.67;100466.50;5035158;28;20033;-69
2024/03/15 03:16:42;;;;;;;8.52;3.63;;;;;;;8.90;52.78;100465.50;5032191;28;20040;-69
2024/03/15 03:19:08;;;;;;;7.25;4.30;;;;;;;8.62;53.74;100460.47;5043552;28;20071;-70
2024/03/15 03:21:33;;;;;;;11.25;3.58;;;;;;;9.18;52.46;100464.38;5030604;28;20490;-72
2024/03/15 03:24:00;;;;;;;7.07;3.55;;;;;;;9.09;52.72;100462.13;5027650;28;20059;-70
2024/03/15 03:26:29;;;;;;;8.07;3.92;;;;;;;8.80;53.38;100469.34;5028579;28;20032;-74
2024/03/15 03:28:56;;;;;;;7.47;3.92;;;;;;;8.85;53.34;100470.03;5013214;28;20033;-77
2024/03/15 03:31:22;;;;;;;4.35;3.15;;;;;;;9.14;52.43;100452.38;5030592;28;20442;-75
2024/03/15 03:33:48;;;;;;;6.30;3.63;;;;;;;8.96;52.95;100470.47;4995257;28;20049;-78
2024/03/15 03:36:13;;;;;;;5.15;3.92;;;;;;;9.19;52.79;100466.09;5028874;28;20082;-73
2024/03/15 03:38:42;;;;;;;9.57;4.50;;;;;;;8.62;54.03;100459.63;5031133;28;20049;-69
2024/03/15 03:41:08;;;;;;;7.50;4.82;;;;;;;8.84;53.53;100470.94;5028058;28;21853;-73
2024/03/15 03:43:34;;;;;;;5.97;4.10;;;;;;;9.11;52.74;100468.97;5031323;28;20037;-69
2024/03/15 03:46:00;;;;;;;5.85;4.18;;;;;;;8.93;53.14;100464.50;5026079;28;20034;-67
2024/03/15 03:48:25;;;;;;;10.05;5.13;;;;;;;8.45;54.66;100465.44;5030585;28;20045;-70
2024/03/15 03:50:51;;;;;;;5.38;4.03;;;;;;;8.57;54.37;100465.00;5024955;28;20762;-67
2024/03/15 03:53:16;;;;;;;6.05;4.38;;;;;;;8.56;54.35;100469.38;5031651;28;20191;-69
2024/03/15 03:55:42;;;;;;;8.32;4.03;;;;;;;8.91;53.82;100464.56;5015333;28;20605;-69
2024/03/15 03:58:12;;;;;;;6.82;4.38;;;;;;;9.07;53.14;100466.56;5023528;28;20093;-69
2024/03/15 04:00:38;;;;;;;5.07;3.80;;;;;;;9.03;53.32;100464.97;5033537;28;20037;-71
2024/03/15 04:03:04;;;;;;;5.70;4.15;;;;;;;9.03;53.23;100462.38;5023732;28;21555;-68
2024/03/15 04:05:29;;;;;;;9.68;4.28;;;;;;;8.72;54.41;100464.44;5035134;28;20119;-72
2024/03/15 04:07:55;;;;;;;5.72;3.83;;;;;;;8.48;54.71;100461.00;5034596;28;20037;-73
2024/03/15 04:10:20;;;;;;;5.13;3.83;;;;;;;9.00;53.57;100462.50;5020898;28;20040;-72
2024/03/15 04:12:46;;;;;;;6.45;4.30;;;;;;;8.90;53.97;100460.28;5031212;28;20868;-73
2024/03/15 04:15:14;;;;;;;11.27;4.68;;;;;;;8.97;53.29;100461.72;5036104;28;20120;-72
2024/03/15 04:17:41;;;;;;;7.95;4.47;;;;;;;8.67;54.61;100457.69;5032044;28;20048;-73
2024/03/15 04:20:12;;;;;;;9.52;5.05;;;;;;;8.89;54.08;100458.56;5051272;28;20143;-72
2024/03/15 04:22:43;;;;;;;6.07;4.25;;;;;;;8.98;53.57;100460.84;5034426;28;20072;-73
2024/03/15 04:25:10;;;;;;;5.47;3.83;;;;;;;9.12;53.54;100459.41;5030984;28;20048;-73
2024/03/15 04:27:35;;;;;;;7.20;4.85;;;;;;;8.84;53.97;100460.50;5022428;28;20051;-73
2024/03/15 04:30:14;;;;;;;9.10;4.22;;;;;;;8.87;54.22;100457.78;5031775;28;20036;-73
2024/03/15 04:32:47;;;;;;;5.75;4.28;;;;;;;8.59;54.99;100459.75;5038719;28;20086;-73
2024/03/15 04:35:17;;;;;;;5.95;4.35;;;;;;;8.65;54.91;100454.28;5038574;28;20674;-72
2024/03/15 04:37:43;;;;;;;7.55;4.70;;;;;;;8.74;54.64;100452.22;5028345;28;20584;-74
2024/03/15 04:40:10;;;;;;;5.32;4.38;;;;;;;8.70;54.64;100449.75;5027406;28;20117;-74
2024/03/15 04:42:36;;;;;;;8.82;4.97;;;;;;;8.71;55.04;100459.28;5046150;28;20037;-74
2024/03/15 04:45:04;;;;;;;9.85;5.05;;;;;;;8.77;54.67;100452.09;5045741;28;20067;-74
2024/03/15 04:47:30;;;;;;;8.15;4.97;;;;;;;8.77;54.57;100449.47;5015543;28;20045;-70
2024/03/15 04:49:56;;;;;;;5.43;3.97;;;;;;;8.92;54.67;100442.81;5006990;28;20067;-71
2024/03/15 04:52:22;;;;;;;6.55;4.47;;;;;;;8.59;55.43;100446.72;5000568;28;20044;-70
2024/03/15 04:54:48;;;;;;;10.00;4.07;;;;;;;8.44;56.28;100451.59;5029528;28;20029;-70
2024/03/15 04:57:16;;;;;;;5.82;4.45;;;;;;;8.63;55.41;100446.53;5016083;28;20500;-70
2024/03/15 04:59:41;;;;;;;5.18;3.58;;;;;;;8.64;55.66;100452.59;5007523;28;20071;-71
2024/03/15 05:02:08;;;;;;;6.63;4.93;;;;;;;8.81;55.07;100455.44;5004542;28;20037;-68
2024/03/15 05:04:34;;;;;;;8.50;5.15;;;;;;;8.59;55.95;100454.53;5007280;28;20033;-69
2024/03/15 05:06:59;;;;;;;7.75;4.57;;;;;;;8.19;57.35;100450.81;5005459;28;20076;-72
2024/03/15 05:09:25;;;;;;;11.10;4.95;;;;;;;8.59;56.24;100449.31;5010387;28;20609;-70
2024/03/15 05:11:51;;;;;;;6.95;3.88;;;;;;;8.84;55.51;100450.09;5023614;28;20442;-70
2024/03/15 05:14:17;;;;;;;7.38;4.63;;;;;;;8.79;55.81;100446.81;5006674;28;20060;-70
2024/03/15 05:16:55;;;;;;;8.68;4.60;;;;;;;8.36;57.56;100448.44;5009294;28;20043;-69
2024/03/15 05:19:21;;;;;;;8.95;4.88;;;;;;;8.32;58.07;100452.06;4998384;28;20048;-69
2024/03/15 05:21:46;;;;;;;7.10;5.20;;;;;;;8.52;57.81;100449.56;5008247;28;20038;-69
2024/03/15 05:24:12;;;;;;;8.57;5.72;;;;;;;8.45;58.00;100448.09;5001510;28;20035;-69
2024/03/15 05:26:38;;;;;;;11.55;6.28;;;;;;;8.10;58.99;100455.44;5010105;28;20467;-70
2024/03/15 05:29:06;;;;;;;11.10;5.35;;;;;;;8.62;57.71;100457.00;5006595;28;20041;-69
2024/03/15 05:31:32;;;;;;;9.00;5.03;;;;;;;8.67;57.93;100458.53;5011735;28;20071;-69
2024/03/15 05:34:00;;;;;;;9.80;5.32;;;;;;;8.89;57.18;100461.16;5000926;28;20048;-70
2024/03/15 05:36:26;;;;;;;6.80;5.18;;;;;;;8.24;59.48;100459.31;5008798;28;20163;-72
2024/03/15 05:38:53;;;;;;;8.93;5.55;;;;;;;8.46;59.04;100460.19;5003585;28;20053;-70
2024/03/15 05:41:18;;;;;;;12.43;6.45;;;;;;;8.66;58.34;100454.22;5009837;28;20546;-71
2024/03/15 05:43:44;;;;;;;11.68;6.05;;;;;;;8.75;58.52;100455.66;4999038;28;20048;-71
2024/03/15 05:46:11;;;;;;;10.48;5.70;;;;;;;8.19;60.41;100456.03;5002367;28;20038;-71
2024/03/15 05:48:37;;;;;;;8.95;5.95;;;;;;;8.25;60.54;100458.38;5011464;28;20045;-70
2024/03/15 05:51:03;;;;;;;9.98;6.22;;;;;;;8.17;60.75;100463.03;5001548;28;20119;-71
2024/03/15 05:53:29;;;;;;;7.38;5.20;;;;;;;8.67;59.26;100457.69;5010586;28;20051;-71
2024/03/15 05:55:55;;;;;;;10.35;6.75;;;;;;;8.14;61.41;100453.59;5009630;28;20076;-70
2024/03/15 05:58:20;;;;;;;10.88;6.30;;;;;;;8.68;59.41;100460.22;4985656;28;20096;-69
2024/03/15 06:00:46;;;;;;;12.23;5.97;;;;;;;8.47;60.41;100456.69;5005475;28;20051;-69
2024/03/15 06:03:12;;;;;;;12.98;6.03;;;;;;;8.39;60.92;100456.13;5005525;28;20045;-70
2024/03/15 06:05:37;;;;;;;13.70;6.68;;;;;;;8.19;61.77;100458.63;5012988;28;20123;-69
2024/03/15 06:08:03;;;;;;;13.43;6.25;;;;;;;7.79;63.37;100458.28;4996575;28;20083;-69
2024/03/15 06:10:29;;;;;;;12.57;5.95;;;;;;;7.91;63.47;100454.41;5011664;28;20048;-70
2024/03/15 06:12:58;;;;;;;10.48;5.95;;;;;;;7.97;63.21;100451.59;5002854;28;20091;-66
2024/03/15 06:15:24;;;;;;;10.10;6.30;;;;;;;8.31;62.62;100459.00;5009411;28;20124;-68
2024/03/15 06:17:50;;;;;;;11.88;6.20;;;;;;;8.21;62.98;100452.47;5006761;28;20041;-70
2024/03/15 06:20:15;;;;;;;13.57;7.85;;;;;;;8.09;63.66;100450.28;5010813;28;20067;-70
2024/03/15 06:22:41;;;;;;;11.57;6.75;;;;;;;7.90;64.41;100453.56;5010801;28;20540;-71
2024/03/15 06:25:06;;;;;;;11.15;7.30;;;;;;;7.88;64.70;100462.31;5006323;28;20707;-71
2024/03/15 06:27:32;;;;;;;14.38;7.43;;;;;;;7.73;64.83;100454.16;5010551;28;20561;-73
2024/03/15 06:29:57;;;;;;;14.70;6.68;;;;;;;8.42;63.23;100463.81;5008632;28;20483;-73
2024/03/15 06:32:26;;;;;;;13.45;7.05;;;;;;;8.04;64.45;100458.25;5014047;28;20473;-74
2024/03/15 06:35:00;;;;;;;11.07;6.72;;;;;;;8.24;63.63;100456.69;5011827;28;20471;-75
2024/03/15 06:37:27;;;;;;;9.18;7.38;;;;;;;8.21;64.32;100456.81;5008966;28;20037;-69
2024/03/15 06:45:23;;;;;;;17.85;7.70;;;;;;;8.47;63.52;100456.69;4982230;28;20048;-71
2024/03/15 06:48:02;;;;;;;19.88;7.10;;;;;;;8.31;63.77;100461.59;5008598;28;20045;-71
2024/03/15 06:50:48;;;;;;;12.55;6.63;;;;;;;8.01;64.72;100470.56;5014421;28;20068;-71
2024/03/15 06:53:16;;;;;;;13.02;6.95;;;;;;;8.49;63.56;100470.50;5008003;28;20072;-71
2024/03/15 06:55:43;;;;;;;11.02;6.72;;;;;;;8.43;63.83;100478.56;5013933;28;20029;-72
2024/03/15 06:58:09;;;;;;;15.57;8.05;;;;;;;8.48;63.79;100468.81;5011632;28;20047;-73
2024/03/15 07:00:35;;;;;;;11.15;7.10;;;;;;;8.33;64.35;100474.59;5014086;28;20043;-72
2024/03/15 07:03:01;;;;;;;17.42;8.13;;;;;;;8.23;65.19;100481.91;5005408;28;20084;-71
2024/03/15 07:05:28;;;;;;;13.55;7.82;;;;;;;8.30;64.87;100480.75;5012442;28;20107;-68
2024/03/15 07:07:54;;;;;;;12.80;7.78;;;;;;;8.47;64.26;100485.34;5007731;28;20542;-69
2024/03/15 07:10:19;;;;;;;13.10;7.13;;;;;;;8.30;64.50;100483.38;5015263;28;20102;-69
2024/03/15 07:12:46;;;;;;;15.57;8.80;;;;;;;8.68;63.73;100494.09;5011911;28;20490;-69
2024/03/15 07:15:15;;;;;;;15.90;9.00;;;;;;;8.25;64.95;100493.09;5006347;28;20033;-71
2024/03/15 07:17:43;;;;;;;14.60;8.45;;;;;;;8.22;64.88;100490.59;5012546;28;20685;-71
2024/03/15 07:20:12;;;;;;;13.73;7.70;;;;;;;8.55;64.32;100488.50;5007953;28;20590;-71
2024/03/15 07:22:38;;;;;;;12.30;8.10;;;;;;;8.43;64.63;100480.31;5009147;28;20175;-74
2024/03/15 07:25:05;;;;;;;13.35;8.70;;;;;;;7.95;66.06;100489.81;5014719;28;20120;-68
2024/03/15 07:27:33;;;;;;;13.32;7.38;;;;;;;8.66;63.68;100487.25;5039091;28;20462;-68
2024/03/15 07:30:00;;;;;;;15.77;8.05;;;;;;;8.79;63.39;100483.31;5010089;28;20033;-71
2024/03/15 07:32:27;;;;;;;14.70;8.35;;;;;;;8.87;63.38;100480.38;5017228;28;20053;-68
2024/03/15 07:34:53;;;;;;;19.70;7.82;;;;;;;8.42;64.53;100489.84;5008698;28;20040;-69
2024/03/15 07:37:20;;;;;;;16.08;9.20;;;;;;;8.45;64.53;100487.16;5005893;28;21270;-69
2024/03/15 07:39:46;;;;;;;16.70;9.07;;;;;;;8.29;65.15;100489.50;5011535;28;20447;-68
2024/03/15 07:42:12;;;;;;;15.45;8.48;;;;;;;8.70;63.67;100496.66;5006591;28;22754;-69
2024/03/15 07:44:37;;;;;;;18.00;9.63;;;;;;;8.59;64.39;100491.00;5012021;28;20037;-68
2024/03/15 07:47:03;;;;;;;13.50;8.82;;;;;;;8.84;63.42;100483.13;5007655;28;20033;-67
2024/03/15 07:49:29;;;;;;;20.08;9.25;;;;;;;8.45;64.44;100492.38;5010533;28;20033;-69
2024/03/15 07:51:56;;;;;;;15.48;8.32;;;;;;;8.79;63.91;100483.31;5008113;28;20099;-76
2024/03/15 07:54:22;;;;;;;12.15;8.15;;;;;;;9.10;63.00;100498.59;5008481;28;20036;-73
2024/03/15 07:56:48;;;;;;;14.63;9.18;;;;;;;8.41;64.71;100495.16;5011812;28;20025;-75
2024/03/15 07:59:14;;;;;;;17.63;8.95;;;;;;;8.82;63.82;100504.03;5004449;28;20076;-75
2024/03/15 08:01:43;;;;;;;12.35;9.50;;;;;;;8.70;63.78;100494.06;5013839;28;20097;-72
2024/03/15 08:04:12;;;;;;;14.82;8.35;;;;;;;8.92;63.32;100499.31;5002896;28;20044;-73
2024/03/15 08:06:38;;;;;;;16.70;8.50;;;;;;;9.15;62.70;100501.00;5013040;28;20029;-76
2024/03/15 08:09:04;;;;;;;14.57;9.07;;;;;;;8.89;63.45;100502.88;5008968;28;20048;-77
2024/03/15 08:11:33;;;;;;;19.00;9.57;;;;;;;8.97;63.62;100500.81;5008254;28;20502;-76
2024/03/15 08:14:03;;;;;;;16.40;9.95;;;;;;;8.53;64.00;100489.47;5011045;28;20041;-76
2024/03/15 08:16:35;;;;;;;14.85;7.82;;;;;;;8.72;63.59;100497.47;5037977;28;20289;-71
2024/03/15 08:19:06;;;;;;;15.35;7.97;;;;;;;8.96;63.40;100493.94;5007052;28;20068;-70
2024/03/15 08:21:33;;;;;;;13.57;9.32;;;;;;;9.38;62.21;100494.84;5009371;28;20039;-71
2024/03/15 08:24:04;;;;;;;14.82;8.18;;;;;;;9.55;61.87;100496.78;5011084;28;20044;-75
2024/03/15 08:26:31;;;;;;;13.17;9.00;;;;;;;9.09;62.53;100503.84;5006071;28;20037;-69
2024/03/15 08:28:57;;;;;;;16.02;9.32;;;;;;;9.11;62.59;100497.66;5008871;28;20095;-74
2024/03/15 08:31:23;;;;;;;16.23;9.55;;;;;;;9.15;62.59;100501.00;5005956;28;20962;-73
2024/03/15 08:33:48;;;;;;;13.55;7.40;;;;;;;9.27;62.81;100495.28;5013961;28;20136;-74
2024/03/15 08:36:14;;;;;;;13.52;9.25;;;;;;;9.25;62.59;100497.09;5002397;28;20060;-68
2024/03/15 08:38:40;;;;;;;17.10;8.52;;;;;;;8.81;64.07;100504.06;5010830;28;20146;-68
2024/03/15 08:41:06;;;;;;;13.32;9.85;;;;;;;9.19;62.73;100505.19;5002343;28;20508;-69
2024/03/15 08:43:33;;;;;;;12.90;8.32;;;;;;;9.39;62.23;100510.44;5013738;28;20041;-68
2024/03/15 08:45:59;;;;;;;12.30;8.65;;;;;;;9.50;61.76;100506.53;5008154;28;20024;-68
2024/03/15 08:48:27;;;;;;;16.48;8.90;;;;;;;9.37;62.18;100511.44;5034701;28;21730;-69
2024/03/15 08:50:53;;;;;;;16.15;10.48;;;;;;;9.38;62.49;100510.50;5023538;28;20603;-68
2024/03/15 08:53:18;;;;;;;13.77;8.57;;;;;;;9.25;63.13;100511.91;5002514;28;20057;-69
2024/03/15 08:55:44;;;;;;;16.35;8.98;;;;;;;8.92;64.09;100513.19;5009570;28;20033;-68
2024/03/15 08:58:10;;;;;;;15.10;8.60;;;;;;;8.50;65.65;100511.28;5004135;28;20037;-68
2024/03/15 09:00:38;;;;;;;12.18;8.48;;;;;;;9.07;64.31;100505.66;5014708;28;20036;-69
2024/03/15 09:03:05;;;;;;;14.10;8.35;;;;;;;9.19;63.22;100497.38;5007096;28;20041;-70
2024/03/15 09:05:31;;;;;;;11.43;7.10;;;;;;;9.29;63.15;100506.50;4992404;28;20036;-69
2024/03/15 09:07:57;;;;;;;12.10;8.45;;;;;;;9.61;62.54;100504.34;5009262;28;20045;-69
2024/03/15 09:10:23;;;;;;;11.73;7.18;;;;;;;9.76;62.02;100498.47;5005160;28;20072;-68
2024/03/15 09:12:49;;;;;;;16.65;7.50;;;;;;;10.00;60.53;100496.59;5008581;28;20188;-68
2024/03/15 09:15:16;;;;;;;9.90;6.85;;;;;;;10.21;60.77;100500.03;5003585;28;20064;-70
2024/03/15 09:17:41;;;;;;;12.43;8.23;;;;;;;9.93;60.58;100486.50;5011516;28;20033;-68
2024/03/15 09:22:43;;;;;;;10.77;7.95;;;;;;;9.95;60.36;100492.50;5009112;28;20155;-69
2024/03/15 09:25:18;;;;;;;14.43;8.50;;;;;;;9.48;62.34;100496.19;5005013;28;20036;-68
2024/03/15 09:27:45;;;;;;;12.90;8.02;;;;;;;10.11;60.98;100490.91;5011716;28;20073;-68
2024/03/15 09:30:18;;;;;;;11.32;7.95;;;;;;;10.47;59.80;100487.56;5006523;28;20447;-69
2024/03/15 09:32:44;;;;;;;14.15;8.07;;;;;;;10.66;58.32;100495.41;5007488;28;20037;-67
2024/03/15 09:35:13;;;;;;;12.13;7.93;;;;;;;10.37;59.80;100494.97;5006690;28;20329;-67
2024/03/15 09:37:46;;;;;;;14.90;8.60;;;;;;;11.24;58.18;100507.50;5007469;28;20045;-67
2024/03/15 09:40:15;;;;;;;11.38;7.45;;;;;;;11.00;57.47;100489.47;5004510;28;20490;-67
2024/03/15 09:42:43;;;;;;;13.52;6.85;;;;;;;12.09;56.17;100504.16;5014825;28;20036;-68
2024/03/15 09:45:12;;;;;;;7.32;6.45;;;;;;;12.13;55.10;100503.03;5003851;28;20033;-68
2024/03/15 09:47:40;;;;;;;8.63;6.47;;;;;;;12.16;54.10;100513.38;5005362;28;20037;-67
2024/03/15 09:50:12;;;;;;;12.25;6.80;;;;;;;11.68;55.69;100512.31;5008665;28;20104;-67
2024/03/15 09:52:38;;;;;;;10.20;6.90;;;;;;;11.36;55.65;100514.75;5005049;28;20042;-68
2024/03/15 09:55:13;;;;;;;7.72;5.95;;;;;;;10.98;57.17;100512.22;5008658;28;20028;-68
2024/03/15 09:57:43;;;;;;;11.40;6.60;;;;;;;10.53;58.00;100518.66;5011371;28;20052;-67
2024/03/15 10:00:26;;;;;;;9.23;6.60;;;;;;;10.26;59.00;100518.13;5016924;28;20044;-68
2024/03/15 10:02:53;;;;;;;8.70;5.75;;;;;;;10.68;58.07;100530.16;5018052;28;20156;-67
2024/03/15 10:05:23;;;;;;;12.20;6.03;;;;;;;10.42;57.38;100515.66;5008644;28;20029;-68
2024/03/15 10:07:52;;;;;;;10.48;5.47;;;;;;;10.55;57.45;100526.41;5012018;28;20049;-67
2024/03/15 10:10:19;;;;;;;10.30;6.18;;;;;;;10.30;57.45;100509.22;4990235;28;20045;-68
2024/03/15 10:12:49;;;;;;;8.43;5.97;;;;;;;10.34;57.57;100520.38;5010329;28;20050;-67
2024/03/15 10:15:19;;;;;;;8.38;5.05;;;;;;;10.88;56.52;100517.94;5008347;28;20030;-68
2024/03/15 10:17:46;;;;;;;8.57;4.97;;;;;;;10.54;56.98;100522.09;5012184;28;20407;-70
2024/03/15 10:20:17;;;;;;;7.70;4.25;;;;;;;10.28;57.69;100520.66;5010431;28;20060;-69
2024/03/15 10:22:45;;;;;;;6.25;4.30;;;;;;;9.95;58.39;100509.00;5011143;28;20037;-70
2024/03/15 10:25:15;;;;;;;11.32;4.63;;;;;;;10.35;57.70;100519.47;5011006;28;20034;-70
2024/03/15 10:28:01;;;;;;;8.23;4.53;;;;;;;10.47;57.11;100526.75;5005984;28;20151;-68
2024/03/15 10:30:31;;;;;;;10.45;3.90;;;;;;;9.89;58.36;100521.47;5006867;28;20602;-70
2024/03/15 10:33:03;;;;;;;8.93;4.43;;;;;;;10.05;57.57;100517.28;5009488;28;20053;-67
2024/03/15 10:35:29;;;;;;;5.15;3.28;;;;;;;10.28;57.30;100524.13;5006395;28;20041;-67
2024/03/15 10:37:55;;;;;;;7.68;4.05;;;;;;;10.15;58.16;100521.19;5009227;28;20056;-68
2024/03/15 10:40:25;;;;;;;5.70;3.92;;;;;;;10.18;57.90;100533.28;5005314;28;20102;-68
2024/03/15 10:42:54;;;;;;;8.73;3.60;;;;;;;10.39;57.69;100534.06;5007999;28;20041;-68
2024/03/15 10:45:21;;;;;;;6.63;3.70;;;;;;;9.97;58.99;100530.69;5004499;28;20037;-68
2024/03/15 10:47:47;;;;;;;7.05;3.85;;;;;;;10.13;58.37;100533.47;5009027;28;20033;-68
2024/03/15 10:50:18;;;;;;;9.13;3.75;;;;;;;9.65;58.55;100531.16;5012864;28;20033;-69
2024/03/15 10:52:46;;;;;;;8.73;4.25;;;;;;;9.66;58.02;100528.50;5010294;28;20044;-69
2024/03/15 10:55:18;;;;;;;9.07;4.05;;;;;;;10.32;57.13;100525.66;5012223;28;20091;-69
2024/03/15 10:57:45;;;;;;;7.78;4.13;;;;;;;10.02;57.61;100525.25;5007126;28;20040;-69
2024/03/15 11:00:17;;;;;;;8.43;3.42;;;;;;;11.01;56.22;100534.75;5011939;28;20025;-69
2024/03/15 11:02:49;;;;;;;;;;;;;;;10.63;56.13;100532.97;5005914;28;20063;-70
2024/03/15 11:05:23;;;;;;;8.35;3.70;;;;;;;11.01;55.36;100532.97;5011308;28;19924;-69
2024/03/15 11:08:01;;;;;;;4.15;3.25;;;;;;;10.70;55.54;100530.09;5012529;28;20064;-66
2024/03/15 11:10:26;;;;;;;7.88;3.58;;;;;;;10.97;55.14;100539.31;5004357;28;20127;-68
2024/03/15 11:12:52;;;;;;;8.05;2.88;;;;;;;10.44;56.29;100516.44;5007318;28;20149;-67
2024/03/15 11:15:20;;;;;;;11.90;3.90;;;;;;;10.45;55.77;100517.28;5006562;28;20029;-68
2024/03/15 11:17:45;;;;;;;6.57;3.03;;;;;;;10.53;55.84;100523.03;5011731;28;20068;-66
2024/03/15 11:20:12;;;;;;;7.55;2.75;;;;;;;10.35;56.27;100527.31;5010246;28;20773;-70
2024/03/15 11:22:38;;;;;;;4.13;3.08;;;;;;;10.55;55.59;100534.25;5001173;28;20049;-67
2024/03/15 11:25:07;;;;;;;4.53;3.33;;;;;;;10.71;55.06;100523.94;5011693;28;20587;-67
2024/03/15 11:27:57;;;;;;;5.50;3.22;;;;;;;10.32;55.42;100525.66;5003654;28;20034;-67
2024/03/15 11:30:27;;;;;;;8.68;3.70;;;;;;;10.52;55.70;100527.38;5006021;28;20045;-67
2024/03/15 11:32:54;;;;;;;8.30;2.78;;;;;;;10.52;55.39;100540.44;5039023;28;20053;-70
2024/03/15 11:35:22;;;;;;;8.75;3.30;;;;;;;10.66;54.24;100531.13;5004772;28;20033;-67
2024/03/15 11:37:55;;;;;;;5.90;2.65;;;;;;;10.52;54.75;100543.06;5009053;28;20041;-67